South Fork, Missouri
Current Conditions -  °F | °C
As of 5:53 PM on Monday 22 Dec 2014 (Local Time) from KUNO Reporting Station
Light Rain Light Rain  
Wind Chill: 50°   Ceiling: 600
Heat Index: 50°   Visibility: 10mi
Dew Point: 47°   Wind: 7mph
Humidity: 89%   Direction: 190°S
Pressure: 29.53"   Gusts: NA
Location:  36.63°N, 91.96°W
Report Text: KUNO 222353Z AUTO 19006KT 10SM -RA OVC006 10/08 A2953 RMK AO2 RAB2259 CIG 005V011 SLP000 P0003 60006 T01000083 10100 20083 50000
Loading
Personal Weather Stations






























Interactive Weather Map New forecast layout! Learn more

10-Day Weather Forecast

Advertisements
Track Severe Weather on mobile